createdAt,value
2019-01-14T00:00:40.784Z,37.77
2019-01-14T00:03:44.566Z,37.77
2019-01-14T00:06:48.008Z,37.77
2019-01-14T00:09:51.495Z,37.77
2019-01-14T00:12:57.045Z,37.78
2019-01-14T00:16:00.636Z,37.83
2019-01-14T00:19:04.147Z,37.80
2019-01-14T00:22:07.730Z,37.81
2019-01-14T00:25:11.199Z,37.82
2019-01-14T00:28:14.744Z,37.81
2019-01-14T00:31:18.292Z,37.83
2019-01-14T00:34:27.908Z,37.82
2019-01-14T00:37:32.441Z,37.80
2019-01-14T00:40:35.957Z,37.89
2019-01-14T00:43:39.431Z,37.83
2019-01-14T00:46:42.916Z,37.87
2019-01-14T00:49:48.356Z,37.83
2019-01-14T00:52:51.976Z,37.87
2019-01-14T00:55:55.473Z,37.88
2019-01-14T00:58:58.977Z,37.90
2019-01-14T01:02:02.492Z,37.90
2019-01-14T01:05:06.645Z,37.79
2019-01-14T01:08:10.104Z,37.87
2019-01-14T01:11:14.609Z,37.88
2019-01-14T01:14:18.124Z,37.89
2019-01-14T01:17:22.659Z,37.84
2019-01-14T01:20:26.114Z,37.88
2019-01-14T01:23:29.642Z,37.88
2019-01-14T01:26:33.146Z,37.89
2019-01-14T01:29:37.670Z,37.92
2019-01-14T01:32:41.176Z,37.90
2019-01-14T01:35:46.716Z,37.87
2019-01-14T01:38:50.229Z,37.92
2019-01-14T01:41:55.769Z,37.92
2019-01-14T01:45:01.323Z,37.89
2019-01-14T01:48:04.759Z,37.91
2019-01-14T01:51:08.195Z,37.92
2019-01-14T01:54:11.825Z,37.94
2019-01-14T01:57:15.276Z,37.91
2019-01-14T02:00:20.255Z,37.90
2019-01-14T02:03:23.715Z,37.85
2019-01-14T02:06:27.259Z,37.89
2019-01-14T02:09:30.757Z,37.91
2019-01-14T02:12:35.274Z,37.92
2019-01-14T02:15:44.716Z,37.88
2019-01-14T02:18:48.234Z,37.85
2019-01-14T02:21:51.726Z,37.91
2019-01-14T02:24:55.230Z,37.83
2019-01-14T02:27:58.754Z,37.83
2019-01-14T02:31:02.225Z,37.87
2019-01-14T02:34:05.735Z,37.73
2019-01-14T02:37:09.167Z,37.80
2019-01-14T02:40:17.229Z,37.74
2019-01-14T02:43:20.742Z,37.80
2019-01-14T02:46:25.261Z,37.83
2019-01-14T02:49:29.813Z,37.82
2019-01-14T02:52:39.551Z,37.86
2019-01-14T02:55:40.468Z,37.81
2019-01-14T02:58:43.997Z,37.83
2019-01-14T03:01:47.478Z,37.81
2019-01-14T03:04:53.023Z,37.77
2019-01-14T03:07:57.548Z,37.78
2019-01-14T03:11:02.075Z,37.79
2019-01-14T03:14:05.578Z,37.78
2019-01-14T03:17:09.012Z,37.81
2019-01-14T03:20:13.268Z,37.77
2019-01-14T03:23:16.909Z,37.79
2019-01-14T03:26:20.390Z,37.76
2019-01-14T03:29:25.946Z,37.77
2019-01-14T03:32:31.501Z,37.73
2019-01-14T03:35:34.992Z,37.72
2019-01-14T03:38:38.443Z,37.68
2019-01-14T03:41:42.001Z,37.63
2019-01-14T03:44:45.608Z,37.68
2019-01-14T03:47:49.109Z,37.63
2019-01-14T03:50:52.713Z,37.64
2019-01-14T03:53:56.217Z,37.57
2019-01-14T03:56:59.732Z,37.65
2019-01-14T04:00:03.984Z,37.69
2019-01-14T04:03:07.535Z,37.56
2019-01-14T04:06:11.028Z,37.56
2019-01-14T04:09:14.497Z,37.52
2019-01-14T04:12:18.031Z,37.56
2019-01-14T04:15:21.528Z,37.69
2019-01-14T04:18:25.031Z,37.60
2019-01-14T04:21:30.587Z,37.64
2019-01-14T04:24:36.133Z,37.62
2019-01-14T04:27:39.577Z,37.69
2019-01-14T04:30:43.142Z,37.53
2019-01-14T04:33:46.648Z,37.60
2019-01-14T04:36:50.130Z,37.59
2019-01-14T04:39:54.659Z,37.61
2019-01-14T04:42:58.164Z,37.55
2019-01-14T04:46:04.733Z,37.60
2019-01-14T04:49:09.279Z,37.55
2019-01-14T04:52:12.768Z,37.67
2019-01-14T04:55:18.304Z,37.61
2019-01-14T04:58:21.800Z,37.65
2019-01-14T05:01:26.337Z,37.37
2019-01-14T05:04:29.834Z,37.48
2019-01-14T05:07:33.377Z,37.45
2019-01-14T05:10:36.839Z,37.46
2019-01-14T05:13:42.280Z,37.44
2019-01-14T05:16:45.778Z,37.54
2019-01-14T05:19:50.218Z,37.45
2019-01-14T05:22:54.006Z,37.53
2019-01-14T05:25:57.613Z,37.38
2019-01-14T05:29:01.170Z,37.23
2019-01-14T05:32:04.618Z,37.39
2019-01-14T05:35:09.474Z,37.54
2019-01-14T05:38:12.947Z,37.44
2019-01-14T05:41:18.392Z,37.35
2019-01-14T05:44:23.044Z,37.34
2019-01-14T05:47:26.589Z,37.32
2019-01-14T05:50:30.143Z,37.29
2019-01-14T05:53:33.630Z,37.42
2019-01-14T05:56:38.155Z,37.22
2019-01-14T05:59:41.667Z,37.28
2019-01-14T06:02:45.164Z,37.43
2019-01-14T06:05:49.694Z,37.48
2019-01-14T06:08:53.196Z,37.47
2019-01-14T06:11:58.747Z,37.47
2019-01-14T06:15:02.213Z,37.53
2019-01-14T06:18:06.752Z,37.45
2019-01-14T06:21:10.279Z,37.47
2019-01-14T06:24:14.596Z,37.52
2019-01-14T06:27:21.058Z,37.50
2019-01-14T06:30:26.394Z,37.36
2019-01-14T06:33:31.013Z,37.52
2019-01-14T06:36:34.525Z,37.47
2019-01-14T06:39:38.027Z,37.49
2019-01-14T06:42:41.487Z,37.43
2019-01-14T06:45:46.064Z,37.43
2019-01-14T06:48:49.586Z,37.51
2019-01-14T06:51:53.121Z,37.56
2019-01-14T06:54:56.580Z,37.53
2019-01-14T06:58:00.035Z,37.45
2019-01-14T07:01:04.111Z,37.47
2019-01-14T07:04:07.560Z,37.45
2019-01-14T07:07:11.101Z,37.47
2019-01-14T07:10:17.633Z,37.45
2019-01-14T07:13:21.127Z,37.42
2019-01-14T07:16:24.658Z,37.39
2019-01-14T07:19:28.134Z,37.40
2019-01-14T07:22:31.812Z,37.37
2019-01-14T07:25:35.460Z,37.38
2019-01-14T07:28:38.947Z,37.37
2019-01-14T07:31:42.451Z,37.35
2019-01-14T07:34:47.022Z,37.34
2019-01-14T07:37:50.470Z,37.24
2019-01-14T07:40:56.019Z,37.29
2019-01-14T07:44:00.546Z,37.37
2019-01-14T07:47:06.109Z,37.33
2019-01-14T07:50:11.036Z,37.33
2019-01-14T07:53:14.553Z,37.29
2019-01-14T07:56:18.133Z,37.32
2019-01-14T07:59:21.619Z,37.25
2019-01-14T08:02:25.169Z,37.21
2019-01-14T08:05:28.658Z,37.21
2019-01-14T08:08:32.254Z,37.00
2019-01-14T08:11:35.774Z,36.97
2019-01-14T08:14:42.731Z,37.02
2019-01-14T08:17:45.478Z,37.02
2019-01-14T08:20:48.928Z,37.05
2019-01-14T08:23:52.413Z,36.57
2019-01-14T08:26:55.953Z,36.47
2019-01-14T08:29:59.398Z,36.84
2019-01-14T08:33:02.924Z,36.72
2019-01-14T08:36:06.423Z,36.44
2019-01-14T08:39:10.942Z,36.23
2019-01-14T08:42:15.643Z,36.11
2019-01-14T08:45:19.158Z,36.08
2019-01-14T08:48:24.734Z,36.13
2019-01-14T08:51:28.232Z,35.95
2019-01-14T08:54:33.773Z,36.03
2019-01-14T08:57:37.220Z,35.96
2019-01-14T09:00:40.836Z,35.84
2019-01-14T09:03:44.471Z,35.95
2019-01-14T09:06:47.997Z,36.01
2019-01-14T09:09:51.646Z,36.15
2019-01-14T09:12:55.150Z,35.78
2019-01-14T09:15:58.601Z,35.38
2019-01-14T09:19:02.063Z,35.48
2019-01-14T09:22:05.605Z,35.69
2019-01-14T09:25:09.138Z,35.73
2019-01-14T09:28:12.677Z,35.68
2019-01-14T09:31:16.121Z,35.71
2019-01-14T09:34:19.621Z,35.50
2019-01-14T09:37:23.085Z,35.74
2019-01-14T09:40:26.577Z,35.51
2019-01-14T09:43:30.025Z,35.38
2019-01-14T09:46:33.544Z,35.52
2019-01-14T09:49:37.186Z,35.69
2019-01-14T09:52:40.811Z,35.67
2019-01-14T09:55:45.234Z,35.98
2019-01-14T09:58:48.722Z,35.62
2019-01-14T10:01:52.185Z,35.76
2019-01-14T10:04:55.902Z,35.76
2019-01-14T10:07:59.454Z,35.61
2019-01-14T10:11:02.917Z,35.90
2019-01-14T10:14:06.440Z,35.87
2019-01-14T10:17:11.324Z,35.79
2019-01-14T10:20:14.861Z,36.05
2019-01-14T10:23:18.368Z,35.70
2019-01-14T10:26:21.848Z,35.85
2019-01-14T10:29:26.377Z,35.92
2019-01-14T10:32:29.981Z,35.97
2019-01-14T10:35:34.655Z,36.00
2019-01-14T10:38:38.174Z,35.73
2019-01-14T10:41:41.617Z,35.84
2019-01-14T10:44:45.069Z,35.68
2019-01-14T10:47:48.525Z,35.57
2019-01-14T10:50:52.121Z,35.65
2019-01-14T10:53:55.647Z,35.72
2019-01-14T10:56:59.090Z,35.34
2019-01-14T11:00:04.658Z,35.49
2019-01-14T11:03:08.341Z,35.26
2019-01-14T11:06:11.901Z,35.14
2019-01-14T11:09:15.390Z,35.77
2019-01-14T11:12:19.893Z,35.40
2019-01-14T11:15:24.424Z,35.00
2019-01-14T11:18:27.913Z,35.46
2019-01-14T11:21:31.352Z,35.35
2019-01-14T11:24:51.012Z,35.36
2019-01-14T11:27:55.475Z,35.59
2019-01-14T11:30:59.931Z,35.44
2019-01-14T11:34:03.466Z,35.21
2019-01-14T11:37:10.255Z,35.19
2019-01-14T11:40:16.923Z,35.25
2019-01-14T11:43:20.516Z,35.34
2019-01-14T11:46:26.048Z,35.74
2019-01-14T11:49:29.570Z,35.31
2019-01-14T11:52:35.117Z,35.57
2019-01-14T11:55:38.610Z,35.56
2019-01-14T11:58:43.166Z,35.76
2019-01-14T12:01:46.610Z,35.65
2019-01-14T12:04:50.351Z,35.08
2019-01-14T12:07:56.444Z,35.12
2019-01-14T12:10:59.803Z,35.47
2019-01-14T12:14:03.323Z,35.57
2019-01-14T12:17:07.828Z,35.72
2019-01-14T12:20:12.477Z,35.72
2019-01-14T12:23:16.055Z,35.44
2019-01-14T12:26:19.577Z,35.61
2019-01-14T12:29:25.121Z,35.46
2019-01-14T12:32:28.629Z,35.22
2019-01-14T12:35:33.118Z,35.34
2019-01-14T12:38:36.741Z,35.27
2019-01-14T12:41:40.382Z,35.37
2019-01-14T12:44:45.906Z,35.44
2019-01-14T12:47:50.397Z,35.57
2019-01-14T12:50:53.908Z,35.60
2019-01-14T12:53:57.397Z,35.58
2019-01-14T12:57:00.912Z,35.41
2019-01-14T13:00:09.003Z,35.45
2019-01-14T13:03:12.616Z,35.57
2019-01-14T13:06:16.142Z,35.47
2019-01-14T13:09:26.759Z,35.53
2019-01-14T13:12:26.089Z,35.53
2019-01-14T13:15:29.690Z,35.53
2019-01-14T13:18:39.207Z,35.60
2019-01-14T13:21:43.659Z,35.57
2019-01-14T13:24:50.305Z,35.54
2019-01-14T13:27:53.933Z,35.44
2019-01-14T13:30:58.472Z,35.70
2019-01-14T13:34:05.154Z,35.48
2019-01-14T13:37:08.659Z,35.42
2019-01-14T13:40:12.278Z,35.63
2019-01-14T13:43:16.786Z,35.38
2019-01-14T13:46:26.193Z,35.26
2019-01-14T13:49:25.615Z,35.34
2019-01-14T13:52:30.237Z,35.47
2019-01-14T13:55:33.838Z,35.52
2019-01-14T13:58:37.337Z,35.58
2019-01-14T14:01:40.842Z,35.57
2019-01-14T14:04:44.471Z,35.60
2019-01-14T14:07:48.061Z,35.56
2019-01-14T14:10:51.552Z,35.60
2019-01-14T14:13:56.098Z,35.51
2019-01-14T14:16:59.663Z,35.58
2019-01-14T14:20:03.705Z,35.84
2019-01-14T14:23:07.143Z,35.90
2019-01-14T14:26:10.799Z,35.81
2019-01-14T14:29:15.496Z,35.92
2019-01-14T14:32:19.132Z,35.92
2019-01-14T14:35:22.629Z,35.90
2019-01-14T14:38:26.166Z,35.81
2019-01-14T14:41:32.712Z,35.95
2019-01-14T14:44:36.233Z,35.90
2019-01-14T14:47:39.810Z,35.76
2019-01-14T14:50:43.433Z,35.96
2019-01-14T14:53:48.060Z,35.98
2019-01-14T14:56:52.766Z,35.87
2019-01-14T14:59:56.381Z,35.59
2019-01-14T15:02:59.883Z,35.93
2019-01-14T15:06:13.978Z,35.56
2019-01-14T15:09:17.534Z,35.79
2019-01-14T15:12:22.153Z,35.68
2019-01-14T15:15:27.271Z,35.91
2019-01-14T15:18:30.901Z,35.92
2019-01-14T15:21:34.425Z,35.92
2019-01-14T15:24:37.920Z,35.98
2019-01-14T15:27:41.424Z,36.01
2019-01-14T15:30:44.912Z,35.95
2019-01-14T15:33:48.415Z,36.00
2019-01-14T15:36:52.921Z,35.81
2019-01-14T15:40:03.080Z,35.82
2019-01-14T15:43:01.775Z,35.83
2019-01-14T15:46:05.272Z,35.91
2019-01-14T15:49:08.806Z,35.82
2019-01-14T15:52:12.306Z,35.85
2019-01-14T15:55:18.038Z,35.81
2019-01-14T15:58:21.522Z,35.82
2019-01-14T16:01:25.050Z,35.74
2019-01-14T16:04:28.548Z,35.83
2019-01-14T16:07:32.217Z,35.79
2019-01-14T16:10:35.756Z,35.80
2019-01-14T16:13:39.345Z,35.79
2019-01-14T16:16:43.982Z,35.82
2019-01-14T16:19:47.498Z,35.63
2019-01-14T16:22:51.084Z,35.81
2019-01-14T16:25:54.623Z,35.88
2019-01-14T16:28:58.626Z,35.57
2019-01-14T16:32:13.683Z,35.74
2019-01-14T16:35:18.573Z,35.77
2019-01-14T16:38:23.093Z,35.87
2019-01-14T16:41:26.755Z,35.81
2019-01-14T16:44:30.275Z,35.82
2019-01-14T16:47:39.661Z,35.89
2019-01-14T16:50:45.256Z,35.84
2019-01-14T16:53:48.736Z,35.89
2019-01-14T16:56:55.657Z,36.02
2019-01-14T16:59:59.102Z,36.01
2019-01-14T17:03:02.737Z,35.90
2019-01-14T17:06:06.333Z,36.00
2019-01-14T17:09:10.951Z,36.05
2019-01-14T17:12:15.447Z,35.95
2019-01-14T17:15:21.034Z,35.87
2019-01-14T17:18:24.472Z,35.92
2019-01-14T17:21:28.072Z,35.99
2019-01-14T17:24:31.494Z,36.01
2019-01-14T17:27:37.058Z,35.99
2019-01-14T17:30:40.573Z,36.07
2019-01-14T17:33:44.090Z,35.94
2019-01-14T17:36:47.565Z,36.02
2019-01-14T17:39:51.081Z,36.16
2019-01-14T17:42:54.565Z,36.13
2019-01-14T17:45:59.097Z,36.12
2019-01-14T17:49:02.735Z,36.13
2019-01-14T17:52:07.441Z,36.17
2019-01-14T17:55:11.149Z,36.15
2019-01-14T17:58:14.724Z,36.08
2019-01-14T18:01:18.244Z,36.21
2019-01-14T18:04:21.756Z,36.23
2019-01-14T18:07:25.291Z,36.21
2019-01-14T18:10:29.762Z,36.24
2019-01-14T18:13:33.313Z,36.21
2019-01-14T18:16:43.604Z,36.30
2019-01-14T18:19:47.221Z,36.28
2019-01-14T18:22:52.651Z,36.21
2019-01-14T18:25:56.205Z,36.26
2019-01-14T18:28:59.820Z,36.24
2019-01-14T18:32:03.362Z,36.29
2019-01-14T18:35:07.011Z,36.22
2019-01-14T18:38:12.537Z,36.24
2019-01-14T18:41:16.051Z,36.26
2019-01-14T18:44:19.529Z,36.22
2019-01-14T18:47:23.038Z,36.21
2019-01-14T18:50:26.581Z,36.28
2019-01-14T18:53:30.015Z,36.27
2019-01-14T18:56:33.541Z,36.29
2019-01-14T18:59:37.051Z,36.23
2019-01-14T19:02:40.545Z,36.19
2019-01-14T19:05:44.066Z,36.30
2019-01-14T19:08:47.547Z,36.24
2019-01-14T19:11:51.106Z,36.36
2019-01-14T19:14:54.573Z,36.37
2019-01-14T19:17:58.085Z,36.26
2019-01-14T19:21:02.592Z,36.21
2019-01-14T19:24:06.093Z,36.32
2019-01-14T19:27:16.443Z,36.36
2019-01-14T19:30:17.058Z,36.36
2019-01-14T19:33:20.697Z,36.43
2019-01-14T19:36:26.229Z,36.34
2019-01-14T19:39:29.743Z,36.34
2019-01-14T19:42:33.266Z,36.32
2019-01-14T19:45:38.781Z,36.38
2019-01-14T19:48:42.277Z,36.39
2019-01-14T19:51:47.719Z,36.15
2019-01-14T19:54:51.320Z,36.32
2019-01-14T19:57:55.919Z,36.41
2019-01-14T20:00:59.566Z,36.49
2019-01-14T20:04:05.169Z,36.50
2019-01-14T20:07:11.138Z,36.57
2019-01-14T20:10:14.454Z,36.57
2019-01-14T20:13:18.069Z,36.56
2019-01-14T20:16:22.630Z,36.57
2019-01-14T20:19:27.185Z,36.53
2019-01-14T20:22:30.827Z,36.47
2019-01-14T20:25:34.328Z,36.47
2019-01-14T20:28:38.856Z,36.52
2019-01-14T20:31:42.478Z,36.60
2019-01-14T20:34:46.069Z,36.57
2019-01-14T20:37:49.590Z,36.58
2019-01-14T20:40:55.101Z,36.55
2019-01-14T20:44:05.124Z,36.53
2019-01-14T20:47:05.808Z,36.52
2019-01-14T20:50:11.350Z,36.42
2019-01-14T20:53:15.998Z,36.41
2019-01-14T20:56:19.592Z,36.44
2019-01-14T20:59:24.095Z,36.50
2019-01-14T21:02:27.645Z,36.48
2019-01-14T21:05:31.107Z,36.46
2019-01-14T21:08:34.745Z,36.46
2019-01-14T21:11:38.319Z,36.45
2019-01-14T21:14:41.743Z,36.40
2019-01-14T21:17:45.177Z,36.37
2019-01-14T21:20:48.919Z,36.29
2019-01-14T21:23:53.350Z,36.32
2019-01-14T21:26:56.807Z,36.33
2019-01-14T21:30:01.373Z,36.33
2019-01-14T21:33:06.927Z,36.27
2019-01-14T21:36:10.441Z,36.33
2019-01-14T21:39:13.929Z,36.34
2019-01-14T21:42:17.431Z,36.37
2019-01-14T21:45:22.968Z,36.33
2019-01-14T21:48:28.549Z,36.38
2019-01-14T21:51:32.123Z,36.40
2019-01-14T21:54:35.573Z,36.44
2019-01-14T21:57:39.008Z,36.53
2019-01-14T22:00:43.547Z,36.54
2019-01-14T22:03:47.043Z,36.58
2019-01-14T22:06:50.549Z,36.55
2019-01-14T22:09:54.049Z,36.61
2019-01-14T22:12:58.588Z,36.59
2019-01-14T22:16:02.121Z,36.62
2019-01-14T22:19:05.585Z,36.62
2019-01-14T22:22:10.129Z,36.65
2019-01-14T22:25:13.591Z,36.69
2019-01-14T22:28:17.021Z,36.66
2019-01-14T22:31:20.510Z,36.73
2019-01-14T22:34:24.118Z,36.64
2019-01-14T22:37:27.563Z,36.69
2019-01-14T22:40:31.032Z,36.66
2019-01-14T22:43:34.519Z,36.64
2019-01-14T22:46:38.399Z,36.64
2019-01-14T22:49:41.879Z,36.66
2019-01-14T22:52:48.450Z,36.72
2019-01-14T22:55:54.966Z,36.78
2019-01-14T22:58:59.485Z,36.78
2019-01-14T23:02:05.034Z,36.82
2019-01-14T23:05:08.541Z,36.82
2019-01-14T23:08:14.123Z,36.80
2019-01-14T23:11:23.634Z,36.83
2019-01-14T23:14:27.130Z,36.82
2019-01-14T23:17:30.654Z,36.86
2019-01-14T23:20:34.141Z,36.86
2019-01-14T23:23:37.751Z,36.81
2019-01-14T23:26:44.490Z,36.84
2019-01-14T23:29:48.033Z,36.85
2019-01-14T23:32:51.521Z,36.84
2019-01-14T23:35:58.089Z,36.89
2019-01-14T23:39:05.461Z,36.89
2019-01-14T23:42:08.979Z,36.86
2019-01-14T23:45:12.488Z,36.91
2019-01-14T23:48:15.989Z,36.86
2019-01-14T23:51:20.525Z,36.86
2019-01-14T23:54:26.061Z,36.78
2019-01-14T23:57:29.578Z,36.89
